Time;durP1;ratioP1;P1;durP2;ratioP2;P2;SDS_P1;SDS_P2;PMS_P1;PMS_P2;Temp;Humidity;BMP_temperature;BMP_pressure;BME280_temperature;BME280_humidity;BME280_pressure;Samples;Min_cycle;Max_cycle;Signal;HPM_P1;HPM_P2
2021/07/03 00:00:25;;;;;;;7.65;5.50;;;16.10;95.00;;;;;;5054999;28;20025;-68
2021/07/03 00:02:51;;;;;;;9.02;6.60;;;16.10;95.00;;;;;;5054575;28;20025;-68
2021/07/03 00:05:16;;;;;;;10.00;7.10;;;16.00;95.10;;;;;;5054620;28;20060;-68
2021/07/03 00:07:42;;;;;;;10.75;7.60;;;16.00;95.10;;;;;;5054567;28;20033;-68
2021/07/03 00:10:08;;;;;;;10.80;7.28;;;16.00;95.20;;;;;;5054679;28;20041;-68
2021/07/03 00:12:34;;;;;;;8.57;6.68;;;16.00;95.20;;;;;;5054501;28;20029;-68
2021/07/03 00:15:00;;;;;;;9.45;6.82;;;16.00;95.30;;;;;;5054601;28;20052;-68
2021/07/03 00:17:26;;;;;;;6.57;5.30;;;15.90;95.30;;;;;;5053121;28;20473;-68
2021/07/03 00:19:51;;;;;;;8.30;5.60;;;15.80;95.40;;;;;;5054404;28;20108;-68
2021/07/03 00:22:17;;;;;;;7.22;5.47;;;15.80;95.70;;;;;;5052901;28;20521;-68
2021/07/03 00:24:43;;;;;;;7.80;5.78;;;15.70;95.50;;;;;;5054334;28;20476;-68
2021/07/03 00:27:08;;;;;;;7.07;5.65;;;15.70;95.50;;;;;;5054392;28;20051;-68
2021/07/03 00:29:34;;;;;;;7.18;5.30;;;15.70;95.50;;;;;;5054267;28;20064;-68
2021/07/03 00:31:59;;;;;;;7.78;4.82;;;15.70;95.60;;;;;;5054026;28;20028;-68
2021/07/03 00:34:25;;;;;;;7.93;5.18;;;15.60;95.50;;;;;;5052970;28;20036;-68
2021/07/03 00:36:50;;;;;;;7.07;5.57;;;15.60;95.60;;;;;;5053298;28;20040;-68
2021/07/03 00:39:16;;;;;;;7.15;5.25;;;15.60;95.70;;;;;;5052881;28;20032;-68
2021/07/03 00:41:41;;;;;;;8.68;6.13;;;15.60;95.70;;;;;;5054075;28;20036;-68
2021/07/03 00:44:07;;;;;;;7.78;6.15;;;15.50;95.70;;;;;;5054004;28;20228;-68
2021/07/03 00:46:33;;;;;;;7.75;6.35;;;15.50;95.70;;;;;;5052551;28;20036;-68
2021/07/03 00:48:58;;;;;;;10.23;7.47;;;15.60;95.80;;;;;;5053884;28;20028;-68
2021/07/03 00:51:24;;;;;;;10.15;7.82;;;15.50;95.80;;;;;;5053719;28;20504;-68
2021/07/03 00:53:50;;;;;;;10.63;8.15;;;15.50;95.90;;;;;;5053731;28;20087;-68
2021/07/03 00:56:15;;;;;;;12.57;8.30;;;15.50;95.90;;;;;;5053704;28;20029;-68
2021/07/03 00:58:41;;;;;;;10.68;8.27;;;15.50;96.00;;;;;;5053646;28;20028;-68
2021/07/03 01:01:06;;;;;;;13.88;9.45;;;15.40;96.00;;;;;;5052361;28;20113;-68
2021/07/03 01:03:32;;;;;;;11.77;9.10;;;15.40;96.10;;;;;;5053557;28;20107;-68
2021/07/03 01:05:58;;;;;;;12.05;8.98;;;15.40;96.20;;;;;;5053531;28;20032;-68
2021/07/03 01:08:23;;;;;;;10.73;7.97;;;15.40;96.20;;;;;;5052303;28;20029;-68
2021/07/03 01:10:49;;;;;;;10.43;8.38;;;15.40;96.30;;;;;;5053472;28;20025;-68
2021/07/03 01:13:14;;;;;;;9.82;7.82;;;15.30;96.30;;;;;;5052303;28;20033;-68
2021/07/03 01:15:40;;;;;;;9.18;6.85;;;15.30;96.70;;;;;;5053167;28;20054;-68
2021/07/03 01:18:05;;;;;;;9.73;7.30;;;15.20;96.40;;;;;;5053230;28;20033;-68
2021/07/03 01:20:31;;;;;;;9.40;6.82;;;15.20;96.50;;;;;;5052117;28;20028;-68
2021/07/03 01:22:56;;;;;;;9.23;7.00;;;15.20;96.50;;;;;;5053020;28;20049;-68
2021/07/03 01:25:22;;;;;;;9.20;6.72;;;15.20;96.60;;;;;;5053453;28;20163;-68
2021/07/03 01:28:05;;;;;;;8.73;6.18;;;15.20;96.60;;;;;;5051884;28;20561;-68
2021/07/03 01:30:31;;;;;;;8.02;5.95;;;15.20;96.60;;;;;;5053138;28;20103;-68
2021/07/03 01:32:58;;;;;;;7.97;5.55;;;15.10;96.70;;;;;;5053199;28;20025;-68
2021/07/03 01:35:25;;;;;;;8.52;6.05;;;15.10;96.80;;;;;;5053080;28;20477;-68
2021/07/03 01:37:50;;;;;;;9.23;7.15;;;15.10;96.80;;;;;;5052854;28;20039;-68
2021/07/03 01:40:16;;;;;;;11.80;8.55;;;15.10;96.90;;;;;;5053038;28;20103;-68
2021/07/03 01:42:41;;;;;;;12.40;8.77;;;15.10;96.90;;;;;;5052891;28;20025;-68
2021/07/03 01:45:08;;;;;;;12.32;8.45;;;15.00;97.00;;;;;;5052927;28;20058;-68
2021/07/03 01:47:40;;;;;;;11.75;8.43;;;15.00;97.00;;;;;;5051897;28;20025;-68
2021/07/03 01:50:06;;;;;;;10.18;7.50;;;15.00;97.10;;;;;;5052126;28;20025;-69
2021/07/03 01:52:32;;;;;;;9.27;6.80;;;15.00;97.20;;;;;;5052691;28;20522;-69
2021/07/03 01:54:58;;;;;;;10.45;6.78;;;15.00;97.20;;;;;;5052861;28;20025;-69
2021/07/03 01:57:23;;;;;;;9.40;7.15;;;15.00;97.20;;;;;;5052687;28;20384;-68
2021/07/03 01:59:49;;;;;;;8.13;6.18;;;14.90;97.20;;;;;;5052781;28;20040;-68
2021/07/03 02:02:14;;;;;;;7.38;5.20;;;14.90;97.30;;;;;;5052846;28;20071;-68
2021/07/03 02:04:40;;;;;;;9.13;5.80;;;14.90;97.30;;;;;;5052859;28;20384;-68
2021/07/03 02:07:05;;;;;;;6.97;5.30;;;14.80;97.40;;;;;;5052808;28;20040;-68
2021/07/03 02:09:31;;;;;;;6.38;5.40;;;14.80;97.40;;;;;;5052570;28;20098;-69
2021/07/03 02:11:56;;;;;;;6.07;4.82;;;14.90;97.40;;;;;;5051485;28;20036;-68
2021/07/03 02:14:22;;;;;;;7.13;5.28;;;14.80;97.40;;;;;;5052719;28;20029;-68
2021/07/03 02:16:47;;;;;;;6.57;5.22;;;14.80;97.50;;;;;;5052446;28;20040;-68
2021/07/03 02:19:13;;;;;;;6.10;5.18;;;14.70;97.50;;;;;;5052736;28;20025;-68
2021/07/03 02:21:38;;;;;;;6.88;5.35;;;14.70;97.50;;;;;;5052442;28;20075;-68
2021/07/03 02:24:04;;;;;;;7.60;5.35;;;14.70;97.60;;;;;;5052508;28;20123;-68
2021/07/03 02:26:30;;;;;;;7.93;5.40;;;14.70;97.60;;;;;;5052422;28;20485;-68
2021/07/03 02:28:56;;;;;;;6.95;5.90;;;14.70;97.70;;;;;;5052667;28;20064;-68
2021/07/03 02:31:21;;;;;;;7.63;6.22;;;14.70;97.70;;;;;;5052570;28;20060;-68
2021/07/03 02:33:47;;;;;;;8.30;5.93;;;14.70;97.70;;;;;;5052499;28;20037;-68
2021/07/03 02:36:13;;;;;;;8.57;5.95;;;14.70;97.70;;;;;;5052360;28;20033;-68
2021/07/03 02:38:39;;;;;;;8.52;6.55;;;14.60;97.70;;;;;;5051063;28;20468;-68
2021/07/03 02:41:04;;;;;;;8.65;6.45;;;14.60;97.80;;;;;;5052412;28;20104;-68
2021/07/03 02:43:30;;;;;;;9.32;6.32;;;14.60;97.80;;;;;;5051185;28;20021;-68
2021/07/03 02:45:56;;;;;;;8.55;6.22;;;14.60;97.90;;;;;;5052380;28;20481;-68
2021/07/03 02:48:21;;;;;;;9.35;6.25;;;14.60;97.90;;;;;;5051062;28;20029;-68
2021/07/03 02:50:47;;;;;;;8.45;6.22;;;14.60;98.00;;;;;;5052289;28;20029;-68
2021/07/03 02:53:13;;;;;;;8.60;5.63;;;14.50;98.00;;;;;;5052581;28;20040;-68
2021/07/03 02:55:39;;;;;;;7.07;5.00;;;14.50;98.00;;;;;;5051985;28;20033;-68
2021/07/03 02:58:04;;;;;;;7.05;5.05;;;14.50;98.10;;;;;;5052296;28;20496;-68
2021/07/03 03:00:30;;;;;;;9.18;6.32;;;14.50;98.20;;;;;;5053556;28;20094;-68
2021/07/03 03:02:56;;;;;;;8.63;5.45;;;14.50;98.30;;;;;;5055945;28;20017;-68
2021/07/03 03:05:22;;;;;;;7.60;5.43;;;14.50;98.30;;;;;;5055907;28;20021;-68
2021/07/03 03:07:47;;;;;;;7.90;5.03;;;14.50;98.30;;;;;;5055806;28;20071;-68
2021/07/03 03:10:16;;;;;;;7.03;5.45;;;14.50;98.40;;;;;;5055505;28;20436;-68
2021/07/03 03:12:42;;;;;;;9.32;6.32;;;14.50;98.40;;;;;;5055715;28;20031;-68
2021/07/03 03:15:09;;;;;;;10.52;7.15;;;14.50;98.40;;;;;;5055611;28;20096;-68
2021/07/03 03:17:35;;;;;;;14.07;7.78;;;14.50;98.50;;;;;;5055661;28;20040;-69
2021/07/03 03:20:02;;;;;;;14.88;9.65;;;14.60;98.50;;;;;;5055769;28;20021;-68
2021/07/03 03:22:28;;;;;;;16.00;11.07;;;14.60;98.60;;;;;;5054057;28;20068;-68
2021/07/03 03:24:53;;;;;;;17.17;10.73;;;14.60;98.60;;;;;;5053971;28;20029;-68
2021/07/03 03:27:19;;;;;;;17.48;11.43;;;14.60;98.60;;;;;;5055402;28;20024;-68
2021/07/03 03:29:44;;;;;;;17.80;11.93;;;14.70;98.70;;;;;;5055463;28;20396;-68
2021/07/03 03:32:10;;;;;;;17.20;11.35;;;14.70;98.70;;;;;;5055395;28;20112;-68
2021/07/03 03:34:35;;;;;;;16.52;10.95;;;14.70;98.70;;;;;;5054050;28;20025;-68
2021/07/03 03:37:01;;;;;;;16.70;11.43;;;14.70;98.70;;;;;;5055174;28;20047;-68
2021/07/03 03:39:27;;;;;;;17.67;11.00;;;14.70;98.70;;;;;;5054963;28;20500;-68
2021/07/03 03:41:52;;;;;;;17.27;12.43;;;14.80;98.80;;;;;;5055146;28;20029;-68
2021/07/03 03:44:19;;;;;;;19.20;13.23;;;14.80;98.80;;;;;;5055212;28;20033;-68
2021/07/03 03:46:45;;;;;;;20.42;13.90;;;14.80;98.80;;;;;;5053784;28;20099;-68
2021/07/03 03:49:11;;;;;;;19.85;14.45;;;14.80;98.90;;;;;;5053865;28;20024;-68
2021/07/03 03:51:36;;;;;;;23.90;15.80;;;14.80;98.80;;;;;;5054986;28;20025;-68
2021/07/03 03:54:02;;;;;;;22.10;15.18;;;14.80;98.90;;;;;;5054893;28;20544;-68
2021/07/03 03:56:27;;;;;;;24.30;16.20;;;14.90;99.00;;;;;;5054632;28;20033;-69
2021/07/03 03:58:53;;;;;;;21.45;14.88;;;14.90;99.00;;;;;;5054926;28;20139;-69
2021/07/03 04:01:18;;;;;;;23.38;14.90;;;14.90;99.00;;;;;;5054487;28;20025;-68
2021/07/03 04:03:44;;;;;;;22.92;15.65;;;14.90;99.10;;;;;;5054330;28;20025;-69
2021/07/03 04:06:09;;;;;;;25.42;16.40;;;15.00;99.10;;;;;;5053926;28;20029;-69
2021/07/03 04:08:36;;;;;;;24.38;15.50;;;15.00;99.10;;;;;;5054361;28;20068;-68
2021/07/03 04:11:02;;;;;;;21.25;14.45;;;15.00;99.10;;;;;;5053236;28;20104;-69
2021/07/03 04:13:28;;;;;;;20.80;13.60;;;15.00;99.10;;;;;;5053875;28;20137;-69
2021/07/03 04:15:53;;;;;;;18.35;11.77;;;15.00;99.00;;;;;;5054414;28;20133;-68
2021/07/03 04:18:19;;;;;;;16.38;11.43;;;15.10;99.00;;;;;;5053236;28;20021;-68
2021/07/03 04:20:44;;;;;;;16.55;11.57;;;15.10;98.90;;;;;;5054514;28;20021;-69
2021/07/03 04:23:10;;;;;;;18.15;11.68;;;15.10;98.90;;;;;;5054196;28;20068;-69
2021/07/03 04:25:35;;;;;;;18.00;11.60;;;15.10;98.90;;;;;;5054076;28;20039;-68
2021/07/03 04:28:01;;;;;;;17.98;11.43;;;15.10;98.90;;;;;;5054308;28;20036;-69
2021/07/03 04:30:27;;;;;;;15.75;11.00;;;15.20;98.90;;;;;;5054276;28;20036;-68
2021/07/03 04:32:52;;;;;;;14.98;10.68;;;15.20;98.90;;;;;;5053786;28;20025;-68
2021/07/03 04:35:18;;;;;;;14.52;9.93;;;15.20;98.90;;;;;;5054106;28;20033;-68
2021/07/03 04:37:44;;;;;;;16.52;11.07;;;15.20;98.70;;;;;;5053465;28;20032;-69
2021/07/03 04:40:10;;;;;;;14.75;9.95;;;15.30;98.70;;;;;;5054098;28;20018;-69
2021/07/03 04:42:35;;;;;;;17.13;10.07;;;15.30;98.60;;;;;;5053833;28;20495;-69
2021/07/03 04:45:01;;;;;;;15.88;10.23;;;15.40;98.60;;;;;;5053936;28;20057;-69
2021/07/03 04:47:27;;;;;;;16.13;10.68;;;15.40;98.60;;;;;;5053941;28;20029;-68
2021/07/03 04:49:52;;;;;;;16.70;10.98;;;15.40;98.60;;;;;;5053886;28;20071;-69
2021/07/03 04:52:18;;;;;;;16.52;11.05;;;15.40;98.60;;;;;;5053808;28;20033;-69
2021/07/03 04:54:44;;;;;;;15.55;10.63;;;15.40;98.70;;;;;;5053767;28;20028;-69
2021/07/03 04:57:12;;;;;;;15.80;10.98;;;15.40;98.80;;;;;;5053714;28;20477;-69
2021/07/03 04:59:40;;;;;;;14.30;10.27;;;15.40;98.80;;;;;;5053802;28;20112;-69
2021/07/03 05:02:06;;;;;;;13.80;10.50;;;15.50;98.90;;;;;;5053700;28;20017;-69
2021/07/03 05:04:32;;;;;;;14.60;11.23;;;15.50;98.90;;;;;;5053582;28;20040;-69
2021/07/03 05:06:58;;;;;;;15.57;11.18;;;15.50;98.90;;;;;;5053421;28;20488;-68
2021/07/03 05:09:23;;;;;;;15.90;11.27;;;15.50;99.00;;;;;;5053658;28;20051;-69
2021/07/03 05:11:49;;;;;;;15.77;11.65;;;15.50;99.00;;;;;;5052099;28;20106;-69
2021/07/03 05:14:14;;;;;;;16.05;10.65;;;15.60;99.00;;;;;;5053541;28;20523;-69
2021/07/03 05:16:40;;;;;;;18.83;11.25;;;15.60;99.10;;;;;;5053079;28;20167;-69
2021/07/03 05:19:05;;;;;;;14.68;10.05;;;15.60;99.10;;;;;;5053480;28;20460;-69
2021/07/03 05:21:31;;;;;;;14.48;10.77;;;15.70;99.20;;;;;;5053201;28;20444;-68
2021/07/03 05:23:56;;;;;;;18.02;13.02;;;15.70;99.20;;;;;;5053447;28;20481;-69
2021/07/03 05:26:22;;;;;;;18.05;12.80;;;15.70;99.30;;;;;;5053250;28;20071;-69
2021/07/03 05:28:47;;;;;;;20.27;13.82;;;15.70;99.40;;;;;;5053749;28;20074;-69
2021/07/03 05:31:13;;;;;;;19.85;13.90;;;15.80;99.70;;;;;;5061195;28;20045;-69
2021/07/03 05:33:38;;;;;;;25.50;17.70;;;15.80;99.50;;;;;;5060972;28;20075;-69
2021/07/03 05:36:04;;;;;;;28.42;17.90;;;15.80;99.60;;;;;;5052893;28;20047;-69
2021/07/03 05:38:30;;;;;;;23.38;16.85;;;15.80;99.70;;;;;;5054807;28;20489;-69
2021/07/03 05:40:59;;;;;;;28.80;20.20;;;15.90;99.80;;;;;;5061753;28;20476;-69
2021/07/03 05:43:25;;;;;;;30.10;21.58;;;15.90;99.80;;;;;;5049669;28;20033;-69
2021/07/03 05:45:51;;;;;;;32.72;21.83;;;15.90;99.90;;;;;;5061870;28;20024;-69
2021/07/03 05:48:16;;;;;;;35.80;24.98;;;16.00;99.90;;;;;;5062596;28;20431;-69
2021/07/03 05:50:42;;;;;;;35.60;24.70;;;16.10;99.90;;;;;;5063126;28;20025;-69
2021/07/03 05:53:07;;;;;;;41.10;29.10;;;16.10;99.90;;;;;;5061432;28;20021;-69
2021/07/03 05:55:33;;;;;;;39.70;26.33;;;16.10;99.90;;;;;;5063019;28;20381;-69
2021/07/03 05:57:59;;;;;;;41.08;27.75;;;16.20;99.90;;;;;;5062843;28;20020;-69
2021/07/03 06:00:24;;;;;;;34.38;23.63;;;16.20;99.90;;;;;;5061324;28;20025;-69
2021/07/03 06:02:50;;;;;;;44.65;29.67;;;16.30;99.90;;;;;;5062439;28;20028;-69
2021/07/03 06:05:15;;;;;;;34.17;24.27;;;16.30;99.90;;;;;;5061321;28;20028;-69
2021/07/03 06:07:42;;;;;;;31.42;22.92;;;16.40;99.90;;;;;;5063147;28;20036;-69
2021/07/03 06:10:08;;;;;;;32.00;24.35;;;16.50;99.90;;;;;;5060934;28;20017;-70
2021/07/03 06:12:34;;;;;;;37.58;26.77;;;16.50;99.90;;;;;;5061626;28;20021;-68
2021/07/03 06:14:59;;;;;;;32.78;22.60;;;16.60;99.90;;;;;;5063116;28;20032;-69
2021/07/03 06:17:25;;;;;;;27.55;19.10;;;16.60;99.90;;;;;;5061558;28;20020;-69
2021/07/03 06:19:51;;;;;;;30.95;21.55;;;16.70;99.90;;;;;;5062358;28;20021;-69
2021/07/03 06:22:16;;;;;;;30.65;19.50;;;16.70;99.90;;;;;;5061038;28;20056;-68
2021/07/03 06:24:44;;;;;;;21.48;16.17;;;16.80;99.90;;;;;;5059889;28;20021;-69
2021/07/03 06:27:10;;;;;;;33.80;24.08;;;16.90;99.90;;;;;;5066832;28;20028;-69
2021/07/03 06:29:36;;;;;;;33.72;24.77;;;16.90;99.90;;;;;;5072424;28;20025;-69
2021/07/03 06:32:04;;;;;;;37.28;25.77;;;17.00;99.90;;;;;;5053924;28;20053;-68
2021/07/03 06:34:30;;;;;;;31.95;23.77;;;17.10;99.90;;;;;;5051992;28;20033;-69
2021/07/03 06:36:56;;;;;;;32.78;25.25;;;17.10;99.90;;;;;;5055810;28;20511;-69
2021/07/03 06:39:21;;;;;;;27.95;20.55;;;17.20;99.90;;;;;;5055943;28;20021;-68
2021/07/03 06:41:47;;;;;;;39.28;28.85;;;17.30;99.90;;;;;;5055811;28;20021;-68
2021/07/03 06:44:13;;;;;;;34.58;27.13;;;17.40;99.90;;;;;;5055872;28;20028;-68
2021/07/03 06:46:38;;;;;;;39.70;26.95;;;17.50;99.90;;;;;;5055717;28;20036;-68
2021/07/03 06:49:04;;;;;;;36.63;26.63;;;17.60;99.90;;;;;;5055680;28;20419;-68
2021/07/03 06:51:29;;;;;;;34.28;26.13;;;17.70;99.70;;;;;;5055731;28;20024;-69
2021/07/03 06:53:57;;;;;;;34.20;25.35;;;17.80;99.60;;;;;;5055701;28;20025;-69
2021/07/03 06:56:22;;;;;;;38.03;26.42;;;17.90;99.30;;;;;;5055583;28;20013;-68
2021/07/03 06:58:48;;;;;;;29.20;23.58;;;18.10;99.10;;;;;;5052749;28;20029;-68
2021/07/03 07:01:13;;;;;;;30.45;22.95;;;18.10;98.90;;;;;;5037806;28;20013;-68
2021/07/03 07:03:39;;;;;;;28.73;21.63;;;18.20;98.80;;;;;;5055462;28;20028;-69
2021/07/03 07:06:05;;;;;;;29.35;22.08;;;18.30;98.60;;;;;;5054121;28;20017;-69
2021/07/03 07:08:30;;;;;;;31.05;22.67;;;18.40;98.20;;;;;;5055470;28;20025;-69
2021/07/03 07:10:55;;;;;;;27.13;20.42;;;18.50;97.50;;;;;;5055400;28;20021;-69
2021/07/03 07:13:21;;;;;;;28.63;20.85;;;18.60;97.40;;;;;;5055413;28;20025;-69
2021/07/03 07:15:46;;;;;;;23.90;19.30;;;18.70;97.30;;;;;;5054894;28;20496;-68
2021/07/03 07:18:12;;;;;;;24.40;18.65;;;18.70;97.10;;;;;;5055042;28;20075;-69
2021/07/03 07:20:38;;;;;;;25.63;19.95;;;18.90;96.60;;;;;;5054422;28;20074;-69
2021/07/03 07:23:03;;;;;;;26.25;19.48;;;18.90;96.30;;;;;;5055404;28;20124;-69
2021/07/03 07:25:29;;;;;;;22.75;16.88;;;19.10;95.80;;;;;;5054257;28;20473;-69
2021/07/03 07:27:54;;;;;;;22.00;17.13;;;19.10;95.80;;;;;;5055391;28;20028;-69
2021/07/03 07:30:20;;;;;;;24.25;19.27;;;19.20;95.70;;;;;;5055347;28;20025;-69
2021/07/03 07:32:46;;;;;;;23.67;19.15;;;19.30;95.50;;;;;;5055023;28;20538;-69
2021/07/03 07:35:13;;;;;;;21.60;17.55;;;19.50;95.50;;;;;;5055237;28;20033;-69
2021/07/03 07:37:38;;;;;;;23.00;18.60;;;19.60;95.50;;;;;;5055154;28;20064;-69
2021/07/03 07:40:05;;;;;;;22.80;18.40;;;19.70;94.90;;;;;;5055526;28;20025;-69
2021/07/03 07:42:31;;;;;;;22.45;16.52;;;19.70;94.70;;;;;;5055242;28;20029;-69
2021/07/03 07:44:57;;;;;;;25.77;19.27;;;19.80;94.60;;;;;;5055288;28;20021;-69
2021/07/03 07:47:22;;;;;;;21.98;17.17;;;19.80;94.60;;;;;;5053575;28;20389;-69
2021/07/03 07:49:48;;;;;;;18.85;15.48;;;20.00;94.50;;;;;;5055166;28;20360;-69
2021/07/03 07:52:13;;;;;;;22.45;17.27;;;20.00;94.50;;;;;;5052112;28;20025;-70
2021/07/03 07:54:39;;;;;;;23.63;17.95;;;20.10;94.00;;;;;;5053256;28;20048;-69
2021/07/03 07:57:04;;;;;;;19.40;15.55;;;20.20;93.40;;;;;;5054057;28;20025;-69
2021/07/03 07:59:30;;;;;;;20.88;15.45;;;20.20;93.40;;;;;;5053523;28;20099;-69
2021/07/03 08:01:56;;;;;;;20.20;15.93;;;20.30;93.50;;;;;;5054483;28;20013;-69
2021/07/03 08:04:21;;;;;;;18.95;15.15;;;20.40;93.40;;;;;;5054594;28;20025;-68
2021/07/03 08:06:47;;;;;;;20.52;15.20;;;20.40;93.20;;;;;;5051728;28;20020;-68
2021/07/03 08:09:12;;;;;;;18.48;16.08;;;20.50;92.80;;;;;;5054655;28;20423;-69
2021/07/03 08:11:38;;;;;;;18.70;15.35;;;20.60;92.90;;;;;;5052970;28;20033;-68
2021/07/03 08:14:04;;;;;;;20.02;15.77;;;20.70;93.10;;;;;;5054169;28;20512;-69
2021/07/03 08:16:30;;;;;;;19.85;16.70;;;20.80;92.80;;;;;;5053934;28;20120;-69
2021/07/03 08:18:55;;;;;;;20.13;15.30;;;20.80;92.20;;;;;;5054442;28;20100;-69
2021/07/03 08:21:21;;;;;;;17.35;13.52;;;20.90;92.20;;;;;;5054387;28;20044;-69
2021/07/03 08:23:47;;;;;;;18.00;14.10;;;21.00;92.30;;;;;;5054364;28;20103;-69
2021/07/03 08:26:12;;;;;;;20.15;15.55;;;21.00;92.30;;;;;;5054302;28;20477;-69
2021/07/03 08:28:38;;;;;;;19.02;13.95;;;21.10;92.60;;;;;;5054173;28;20029;-69
2021/07/03 08:31:04;;;;;;;18.50;14.32;;;21.20;92.20;;;;;;5053939;28;20024;-69
2021/07/03 08:33:29;;;;;;;16.63;13.73;;;21.30;91.50;;;;;;5052551;28;20025;-69
2021/07/03 08:35:55;;;;;;;18.02;14.45;;;21.40;91.10;;;;;;5053946;28;20033;-69
2021/07/03 08:38:20;;;;;;;13.73;11.15;;;21.40;91.50;;;;;;5054089;28;20079;-69
2021/07/03 08:40:48;;;;;;;16.50;11.73;;;21.50;91.60;;;;;;5054114;28;20383;-69
2021/07/03 08:43:14;;;;;;;13.60;10.77;;;21.60;91.70;;;;;;5053992;28;20055;-69
2021/07/03 08:45:39;;;;;;;14.93;10.73;;;21.70;91.80;;;;;;5053863;28;20052;-69
2021/07/03 08:48:05;;;;;;;15.13;12.43;;;21.90;91.80;;;;;;5053699;28;20060;-69
2021/07/03 08:50:30;;;;;;;15.80;12.40;;;21.90;91.00;;;;;;5054047;28;20060;-69
2021/07/03 08:52:56;;;;;;;11.93;9.35;;;22.00;90.60;;;;;;5053390;28;20033;-69
2021/07/03 08:55:26;;;;;;;13.50;11.68;;;22.10;90.70;;;;;;5053025;28;20083;-70
2021/07/03 08:57:54;;;;;;;14.60;11.38;;;22.20;90.20;;;;;;5052809;28;20020;-70
2021/07/03 09:00:29;;;;;;;14.82;11.63;;;22.20;89.70;;;;;;5051192;28;20021;-70
2021/07/03 09:02:56;;;;;;;13.15;10.45;;;22.30;90.00;;;;;;5053428;28;20013;-70
2021/07/03 09:05:30;;;;;;;15.70;11.77;;;22.40;88.10;;;;;;5052261;28;20048;-68
2021/07/03 09:08:04;;;;;;;12.93;10.55;;;22.40;88.30;;;;;;5052226;28;20071;-69
2021/07/03 09:10:31;;;;;;;15.02;11.23;;;22.50;88.10;;;;;;5053500;28;20021;-68
2021/07/03 09:13:01;;;;;;;13.88;10.60;;;22.60;86.70;;;;;;5052085;28;20089;-68
2021/07/03 09:15:33;;;;;;;10.13;7.45;;;22.60;84.90;;;;;;5053014;28;20052;-69
2021/07/03 09:18:01;;;;;;;14.10;7.80;;;22.70;85.50;;;;;;5050503;28;20020;-69
2021/07/03 09:20:34;;;;;;;14.80;11.30;;;22.80;86.00;;;;;;5053047;28;20543;-69
2021/07/03 09:23:04;;;;;;;12.70;8.57;;;22.90;85.90;;;;;;5053214;28;20044;-69
2021/07/03 09:25:30;;;;;;;12.05;9.15;;;23.00;86.60;;;;;;5053193;28;20465;-69
2021/07/03 09:28:03;;;;;;;10.45;8.55;;;23.10;85.60;;;;;;5053098;28;20071;-69
2021/07/03 09:30:29;;;;;;;10.50;7.68;;;23.10;82.50;;;;;;5052808;28;20024;-70
2021/07/03 09:32:54;;;;;;;11.07;7.85;;;23.10;80.80;;;;;;5052681;28;20021;-69
2021/07/03 09:35:21;;;;;;;12.98;9.57;;;23.20;81.30;;;;;;5053184;28;20025;-69
2021/07/03 09:37:49;;;;;;;9.93;7.68;;;23.30;80.20;;;;;;5052787;28;20055;-69
2021/07/03 09:40:15;;;;;;;10.50;8.20;;;23.30;79.60;;;;;;5053000;28;20013;-69
2021/07/03 09:42:41;;;;;;;9.73;7.57;;;23.40;79.30;;;;;;5051498;28;20047;-69
2021/07/03 09:45:09;;;;;;;8.30;7.22;;;23.60;78.00;;;;;;5052938;28;20484;-69
2021/07/03 09:47:35;;;;;;;8.38;6.97;;;23.70;78.90;;;;;;5052719;28;20473;-69
2021/07/03 09:50:10;;;;;;;7.00;5.93;;;23.80;78.80;;;;;;5052940;28;20032;-68
2021/07/03 09:52:37;;;;;;;10.13;8.40;;;24.00;79.10;;;;;;5051295;28;20021;-68
2021/07/03 09:55:07;;;;;;;10.45;8.98;;;24.10;78.70;;;;;;5052389;28;20154;-69
2021/07/03 09:57:38;;;;;;;9.00;7.30;;;24.30;78.30;;;;;;5052298;28;20477;-69
2021/07/03 10:00:09;;;;;;;9.77;7.65;;;24.40;79.10;;;;;;5048323;28;20512;-69
2021/07/03 10:02:36;;;;;;;8.95;7.57;;;24.60;79.80;;;;;;5052433;28;20377;-69
2021/07/03 10:05:03;;;;;;;6.90;5.95;;;24.70;78.00;;;;;;5052163;28;20075;-69
2021/07/03 10:07:44;;;;;;;7.25;5.72;;;24.90;77.70;;;;;;5052056;28;20032;-69
2021/07/03 10:10:19;;;;;;;9.80;7.50;;;25.10;77.30;;;;;;5051657;28;20029;-69
2021/07/03 10:12:56;;;;;;;7.70;6.20;;;25.10;75.10;;;;;;5053734;28;20025;-69
2021/07/03 10:15:35;;;;;;;9.75;7.60;;;25.10;75.70;;;;;;5051023;28;20381;-68
2021/07/03 10:18:15;;;;;;;6.53;5.57;;;25.20;75.60;;;;;;5036351;28;20044;-69
2021/07/03 10:20:44;;;;;;;9.25;7.72;;;25.40;76.20;;;;;;5046887;28;20029;-69
2021/07/03 10:23:11;;;;;;;9.70;6.95;;;25.60;76.50;;;;;;5049568;28;20045;-69
2021/07/03 10:25:39;;;;;;;9.05;7.82;;;25.60;73.40;;;;;;5051935;28;20071;-69
2021/07/03 10:28:11;;;;;;;10.27;8.02;;;25.50;71.90;;;;;;5047968;28;20033;-69
2021/07/03 10:30:39;;;;;;;8.98;7.43;;;25.40;73.40;;;;;;5052506;28;20029;-69
2021/07/03 10:33:26;;;;;;;7.80;6.65;;;25.50;73.40;;;;;;5048148;28;20377;-69
2021/07/03 10:35:54;;;;;;;7.53;6.63;;;25.70;74.20;;;;;;5055650;28;20045;-69
2021/07/03 10:38:28;;;;;;;9.10;7.82;;;26.10;73.60;;;;;;5046010;28;20021;-69
2021/07/03 10:41:14;;;;;;;8.77;6.53;;;26.20;72.20;;;;;;5038220;28;20017;-69
2021/07/03 10:43:43;;;;;;;7.15;5.88;;;26.30;72.10;;;;;;5055541;28;20017;-69
2021/07/03 10:46:09;;;;;;;6.68;5.38;;;26.30;69.90;;;;;;5055978;28;20040;-69
2021/07/03 10:48:35;;;;;;;10.23;8.23;;;26.40;70.60;;;;;;5044277;28;20160;-69
2021/07/03 10:51:13;;;;;;;7.97;7.18;;;26.50;70.70;;;;;;5047765;28;20082;-69
2021/07/03 10:53:39;;;;;;;9.50;7.47;;;26.30;70.60;;;;;;5045045;28;20083;-69
2021/07/03 10:56:15;;;;;;;7.22;6.43;;;26.10;69.90;;;;;;5047223;28;20025;-69
2021/07/03 10:58:42;;;;;;;5.88;5.28;;;26.20;70.20;;;;;;5056430;28;20029;-69
2021/07/03 11:01:14;;;;;;;8.90;7.10;;;26.30;70.60;;;;;;5050427;28;20029;-70
2021/07/03 11:03:48;;;;;;;7.78;6.97;;;26.40;70.30;;;;;;5043753;28;20029;-69
2021/07/03 11:06:21;;;;;;;7.35;6.63;;;26.30;70.20;;;;;;5050821;28;20565;-70
2021/07/03 11:08:48;;;;;;;9.57;8.38;;;26.30;70.00;;;;;;5037758;28;20036;-69
2021/07/03 11:11:16;;;;;;;8.80;6.88;;;26.20;69.10;;;;;;5047779;28;20029;-69
2021/07/03 11:13:43;;;;;;;9.02;7.10;;;26.20;69.50;;;;;;5041557;28;20025;-70
2021/07/03 11:16:11;;;;;;;7.70;6.18;;;26.10;69.00;;;;;;5037951;28;20513;-69
2021/07/03 11:18:41;;;;;;;6.10;5.28;;;26.10;68.80;;;;;;5038710;28;20032;-70
2021/07/03 11:21:10;;;;;;;5.85;4.55;;;26.20;69.00;;;;;;5044728;28;20013;-69
2021/07/03 11:23:36;;;;;;;7.97;6.80;;;26.30;69.10;;;;;;5041287;28;20025;-70
2021/07/03 11:26:11;;;;;;;9.40;8.45;;;26.30;69.40;;;;;;5042882;28;20267;-70
2021/07/03 11:28:37;;;;;;;9.02;7.65;;;26.10;68.50;;;;;;5042310;28;20021;-69
2021/07/03 11:31:04;;;;;;;11.40;7.88;;;26.00;69.10;;;;;;5043284;28;20084;-70
2021/07/03 11:33:35;;;;;;;7.93;6.72;;;26.00;69.00;;;;;;5039883;28;20037;-69
2021/07/03 11:36:03;;;;;;;6.85;6.20;;;25.90;68.60;;;;;;5043629;28;20044;-70
2021/07/03 11:38:28;;;;;;;7.10;6.30;;;25.80;67.80;;;;;;5040571;28;20124;-70
2021/07/03 11:40:59;;;;;;;6.68;5.97;;;25.70;69.80;;;;;;5043149;28;20505;-69
2021/07/03 11:43:25;;;;;;;5.45;4.95;;;25.80;69.30;;;;;;5049645;28;20028;-69
2021/07/03 11:45:53;;;;;;;6.60;5.68;;;26.00;68.80;;;;;;5042129;28;20036;-70
2021/07/03 11:48:21;;;;;;;5.70;5.10;;;26.20;67.80;;;;;;5037358;28;20021;-69
2021/07/03 11:50:50;;;;;;;6.15;4.80;;;26.30;67.70;;;;;;5036993;28;20017;-69
2021/07/03 11:53:18;;;;;;;6.43;5.63;;;26.40;66.80;;;;;;5035935;28;20037;-69
2021/07/03 11:55:46;;;;;;;7.30;4.70;;;26.50;65.40;;;;;;5034103;28;20116;-69
2021/07/03 11:58:14;;;;;;;7.43;6.45;;;26.60;65.80;;;;;;5047229;28;20357;-69
2021/07/03 12:00:46;;;;;;;7.88;6.80;;;26.80;66.60;;;;;;5055477;28;20397;-69
2021/07/03 12:03:14;;;;;;;8.40;6.68;;;26.80;66.40;;;;;;5040754;28;20021;-69
2021/07/03 12:05:43;;;;;;;7.95;6.57;;;26.60;67.00;;;;;;5042280;28;20017;-69
2021/07/03 12:08:11;;;;;;;6.70;6.00;;;26.50;66.10;;;;;;5043711;28;20053;-70
2021/07/03 12:10:37;;;;;;;6.07;4.63;;;26.50;66.00;;;;;;5037172;28;20093;-69
2021/07/03 12:13:05;;;;;;;5.32;4.40;;;26.60;66.90;;;;;;5040431;28;20167;-69
2021/07/03 12:15:31;;;;;;;5.80;5.20;;;26.70;66.80;;;;;;5036952;28;20022;-70
2021/07/03 12:17:58;;;;;;;5.63;4.72;;;26.70;66.70;;;;;;5039270;28;20025;-69
2021/07/03 12:20:25;;;;;;;6.47;5.80;;;26.50;65.80;;;;;;5041457;28;20025;-69
2021/07/03 12:22:57;;;;;;;5.43;4.93;;;26.30;67.40;;;;;;5035313;28;20048;-69
2021/07/03 12:25:24;;;;;;;6.55;5.45;;;26.20;68.40;;;;;;5034777;28;20052;-70
2021/07/03 12:27:55;;;;;;;5.50;4.95;;;26.10;68.90;;;;;;5031911;28;20512;-69
2021/07/03 12:30:22;;;;;;;5.43;4.85;;;25.90;68.60;;;;;;5048596;28;20060;-69
2021/07/03 12:33:06;;;;;;;4.50;4.10;;;25.60;69.40;;;;;;5033036;28;20032;-69